MMTO/TLC METAR and TAF weather

Enter ICAO airport designator
Station Type Date Time Source
MMTO METAR 2022/01/26 13:47 UTC NOAA

MMTO 261347Z 00000KT 3SM BR HZ SKC 01/00 A3038


Station Type Date Time Source
MMTO Decoded METAR 2022/01/26 13:47 UTC NOAA

Toluca / Jose Maria , Mexico (MMTO) 19-21N 099-34W
Jan 26, 2022 - 08:47 AM EST / 2022.01.26 1347 UTC
Wind: Calm:0
Visibility: 3 mile(s):0
Sky conditions: clear
Weather: mist; haze
Temperature: 33 F (1 C)
Dew Point: 32 F (0 C)
Relative Humidity: 93%
Pressure (altimeter): 30.38 in. Hg (1028 hPa)
ob: MMTO 261347Z 00000KT 3SM BR HZ SKC 01/00 A3038
cycle: 14

Station Type Date Time Source
MMTO TAF 2022/01/26 12:49 UTC NOAA

TAF MMTO 261042Z 2612/2718 04005KT 4SM HZ SCT020 TX18/2620Z TN02/2612Z
TEMPO 2612/2616 3SM BR HZ SCT015
FM261800 24012KT P6SM SCT020 BKN080 BKN250
TEMPO 2621/2701 BKN020
FM270600 16005KT P6SM SCT020
FM271000 00000KT 4SM HZ SCT020
TEMPO 2712/2716 2SM BR HZ BKN012
FM271700 24012KT P6SM SCT020 BKN080 BKN250

Example: see airport list